Orto / Ocaso: 07:19 / 17:00 UTC (Datos para LEAX 12-12-2019)

[fuente: ADDS]

METAR:


LEMG 121700Z 28010KT 250V310 9999 FEW050 BKN060 16/06 Q1023 NOSIG =
TAF LEMG 121100Z 1212/1312 29018KT CAVOK TX18/1214Z TN10/1307Z PROB30 TEMPO 1212/1217 30020G30KT BECMG 1217/1219 30008KT LEGR 121700Z 21006KT 170V240 9999 OVC040 10/05 Q1023 =
TAF LEGR 121400Z 1215/1315 VRB02KT CAVOK TX16/1215Z TN02/1309Z PROB40 TEMPO 1215/1218 30010KT BECMG 1222/1224 30010KT PROB40 TEMPO 1300/1315 4000 RA BR BKN012 LEZL 121700Z 23010KT 210V270 9999 SCT045 15/08 Q1024 NOSIG =
TAF LEZL 121400Z 1215/1315 29012KT CAVOK TX19/1314Z TN13/1221Z LEAM 121700Z 31004KT 260V350 CAVOK 15/06 Q1018 =
TAF LEAM 121400Z 1215/1315 34012KT 9999 SCT010 TX20/1215Z TN11/1306Z PROB40 TEMPO 1216/1219 29020G35KT BECMG 1219/1221 VRB03KT LEBA 121700Z AUTO 23008KT 200V260 9999 BKN046 14/07 Q1023 =
TAF LEBA 121400Z 1215/1224 28012KT CAVOK LEJR 121700Z 25009KT 9999 FEW030 BKN056 15/09 Q1025 =
TAF LEJR 121100Z 1212/1312 28012KT CAVOK TX17/1310Z TN10/1221Z GEML 121700Z 27016G28KT 230V300 CAVOK 15/08 Q1023 =
TAF GEML 121400Z 1215/1315 27020G30KT CAVOK TX18/1215Z TN18/1306Z PROB40 TEMPO 1215/1224 27025G40KT PROB40 TEMPO 1300/1312 27030G50KT LXGB 121650Z 26014KT 9999 FEW030 SCT060 BKN300 16/09 Q1025 NOSIG RMK BLU BLU =
TAF LXGB 121620Z 1218/1223 27015KT 9999 FEW025 PROB30 TEMPO 1220/1223 SCT020

TAFOR:


TAF LEMG 121100Z 1212/1312 29018KT CAVOK TX18/1214Z TN10/1307Z PROB30 TEMPO 1212/1217 30020G30KT BECMG 1217/1219 30008KT =
TAF LEGR 121400Z 1215/1315 VRB02KT CAVOK TX16/1215Z TN02/1309Z PROB40 TEMPO 1215/1218 30010KT BECMG 1222/1224 30010KT PROB40 TEMPO 1300/1315 4000 RA BR BKN012 =
TAF LEZL 121400Z 1215/1315 29012KT CAVOK TX19/1314Z TN13/1221Z =
TAF LEAM 121400Z 1215/1315 34012KT 9999 SCT010 TX20/1215Z TN11/1306Z PROB40 TEMPO 1216/1219 29020G35KT BECMG 1219/1221 VRB03KT =
TAF LEBA 121400Z 1215/1224 28012KT CAVOK =
TAF LEJR 121100Z 1212/1312 28012KT CAVOK TX17/1310Z TN10/1221Z =
TAF GEML 121400Z 1215/1315 27020G30KT CAVOK TX18/1215Z TN18/1306Z PROB40 TEMPO 1215/1224 27025G40KT PROB40 TEMPO 1300/1312 27030G50KT =
TAF LXGB 121620Z 1218/1223 27015KT 9999 FEW025 PROB30 TEMPO 1220/1223 SCT020 =

Recuerde que, aunque regularmente actualizada, la información meteorológica aquí presentada no debe ser utilizada para la planificación de vuelos. Si lo desea, puede consultar la información meteorológica adecuada, tanto de aeródromos como en ruta, por las vías oficialmente establecidas en la legislación -> AQUí

Utilizamos "cookies" propias y de terceros para analizar nuestros servicios, medir las audiencias, personalizar el contenido que ofrecemos y mostrar información adaptada a sus intereses mediante la obtención de los datos necesarios para perfilar sus hábitos de navegación e inferir grupos de interés, siempre de modo anónimo. Si continúa utilizando el sitio web AEROCLUBMALAGA.COM, significa que acepta sus términos y condiciones y el uso de "cookies" al utilizar el sitio web y nuestros servicios. Asimismo, podemos utilizar fuentes de datos externas para elaborar estos grupos de interés, así compartir los análisis de navegación y los grupos de interés inferidos con terceros con el objetivo de personalizar los contenidos. Para obtener más información sobre las cookies que utilizamos y cómo eliminarlas, consulte nuestra política de privacidad.

Acepto las cookies de esta página web.
EU Cookie Directive plugin by www.channeldigital.co.uk